sensor_id;sensor_type;location;lat;lon;timestamp;P1;durP1;ratioP1;P2;durP2;ratioP2
30593;SDS011;33199;47.590;8.300;2022-09-27T00:00:30;1.13;;;0.70;;
30593;SDS011;33199;47.590;8.300;2022-09-27T00:02:56;0.80;;;0.80;;
30593;SDS011;33199;47.590;8.300;2022-09-27T00:05:22;0.70;;;0.70;;
30593;SDS011;33199;47.590;8.300;2022-09-27T00:07:47;0.88;;;0.88;;
30593;SDS011;33199;47.590;8.300;2022-09-27T00:10:13;0.88;;;0.88;;
30593;SDS011;33199;47.590;8.300;2022-09-27T00:12:39;1.27;;;0.90;;
30593;SDS011;33199;47.590;8.300;2022-09-27T00:15:05;2.38;;;0.95;;
30593;SDS011;33199;47.590;8.300;2022-09-27T00:17:32;1.02;;;0.75;;
30593;SDS011;33199;47.590;8.300;2022-09-27T00:19:58;0.80;;;0.80;;
30593;SDS011;33199;47.590;8.300;2022-09-27T00:22:25;0.60;;;0.60;;
30593;SDS011;33199;47.590;8.300;2022-09-27T00:24:51;2.63;;;0.88;;
30593;SDS011;33199;47.590;8.300;2022-09-27T00:27:17;0.95;;;0.70;;
30593;SDS011;33199;47.590;8.300;2022-09-27T00:29:43;0.85;;;0.85;;
30593;SDS011;33199;47.590;8.300;2022-09-27T00:32:10;1.50;;;0.80;;
30593;SDS011;33199;47.590;8.300;2022-09-27T00:34:37;0.90;;;0.90;;
30593;SDS011;33199;47.590;8.300;2022-09-27T00:37:02;0.68;;;0.68;;
30593;SDS011;33199;47.590;8.300;2022-09-27T00:39:28;1.48;;;0.80;;
30593;SDS011;33199;47.590;8.300;2022-09-27T00:41:53;0.60;;;0.60;;
30593;SDS011;33199;47.590;8.300;2022-09-27T00:47:23;0.63;;;0.63;;
30593;SDS011;33199;47.590;8.300;2022-09-27T00:49:53;1.02;;;0.77;;
30593;SDS011;33199;47.590;8.300;2022-09-27T00:52:27;2.03;;;0.88;;
30593;SDS011;33199;47.590;8.300;2022-09-27T00:55:10;1.13;;;0.75;;
30593;SDS011;33199;47.590;8.300;2022-09-27T00:57:41;0.88;;;0.88;;
30593;SDS011;33199;47.590;8.300;2022-09-27T01:00:10;0.70;;;0.70;;
30593;SDS011;33199;47.590;8.300;2022-09-27T01:02:37;1.23;;;1.23;;
30593;SDS011;33199;47.590;8.300;2022-09-27T01:05:06;1.38;;;0.80;;
30593;SDS011;33199;47.590;8.300;2022-09-27T01:07:33;0.47;;;0.47;;
30593;SDS011;33199;47.590;8.300;2022-09-27T01:09:59;0.75;;;0.75;;
30593;SDS011;33199;47.590;8.300;2022-09-27T01:15:16;3.17;;;0.70;;
30593;SDS011;33199;47.590;8.300;2022-09-27T01:32:04;0.82;;;0.70;;
30593;SDS011;33199;47.590;8.300;2022-09-27T01:35:34;0.50;;;0.50;;
30593;SDS011;33199;47.590;8.300;2022-09-27T01:40:50;0.70;;;0.70;;
30593;SDS011;33199;47.590;8.300;2022-09-27T01:46:26;0.70;;;0.70;;
30593;SDS011;33199;47.590;8.300;2022-09-27T01:48:58;0.60;;;0.60;;
30593;SDS011;33199;47.590;8.300;2022-09-27T01:51:31;0.60;;;0.60;;
30593;SDS011;33199;47.590;8.300;2022-09-27T01:54:03;0.50;;;0.50;;
30593;SDS011;33199;47.590;8.300;2022-09-27T01:56:36;0.50;;;0.50;;
30593;SDS011;33199;47.590;8.300;2022-09-27T02:01:33;0.63;;;0.63;;
30593;SDS011;33199;47.590;8.300;2022-09-27T02:04:01;0.70;;;0.70;;
30593;SDS011;33199;47.590;8.300;2022-09-27T02:06:36;0.60;;;0.60;;
30593;SDS011;33199;47.590;8.300;2022-09-27T02:11:35;0.47;;;0.47;;
30593;SDS011;33199;47.590;8.300;2022-09-27T02:20:07;0.52;;;0.52;;
30593;SDS011;33199;47.590;8.300;2022-09-27T02:22:50;0.75;;;0.60;;
30593;SDS011;33199;47.590;8.300;2022-09-27T02:25:28;0.50;;;0.50;;
30593;SDS011;33199;47.590;8.300;2022-09-27T02:30:42;0.40;;;0.40;;
30593;SDS011;33199;47.590;8.300;2022-09-27T02:33:07;0.52;;;0.50;;
30593;SDS011;33199;47.590;8.300;2022-09-27T02:35:35;0.60;;;0.60;;
30593;SDS011;33199;47.590;8.300;2022-09-27T02:38:01;0.40;;;0.40;;
30593;SDS011;33199;47.590;8.300;2022-09-27T02:40:30;0.65;;;0.45;;
30593;SDS011;33199;47.590;8.300;2022-09-27T02:43:00;0.73;;;0.60;;
30593;SDS011;33199;47.590;8.300;2022-09-27T02:48:21;0.60;;;0.60;;
30593;SDS011;33199;47.590;8.300;2022-09-27T02:51:10;0.52;;;0.40;;
30593;SDS011;33199;47.590;8.300;2022-09-27T02:54:03;0.55;;;0.55;;
30593;SDS011;33199;47.590;8.300;2022-09-27T03:05:12;0.40;;;0.40;;
30593;SDS011;33199;47.590;8.300;2022-09-27T03:10:17;0.80;;;0.63;;
30593;SDS011;33199;47.590;8.300;2022-09-27T03:12:44;0.65;;;0.47;;
30593;SDS011;33199;47.590;8.300;2022-09-27T03:15:09;0.45;;;0.45;;
30593;SDS011;33199;47.590;8.300;2022-09-27T03:17:35;0.43;;;0.43;;
30593;SDS011;33199;47.590;8.300;2022-09-27T03:20:01;0.52;;;0.47;;
30593;SDS011;33199;47.590;8.300;2022-09-27T03:22:27;0.47;;;0.43;;
30593;SDS011;33199;47.590;8.300;2022-09-27T03:24:53;0.50;;;0.50;;
30593;SDS011;33199;47.590;8.300;2022-09-27T03:27:18;0.60;;;0.60;;
30593;SDS011;33199;47.590;8.300;2022-09-27T03:29:44;0.30;;;0.30;;
30593;SDS011;33199;47.590;8.300;2022-09-27T03:32:09;0.55;;;0.55;;
30593;SDS011;33199;47.590;8.300;2022-09-27T03:34:35;3.75;;;0.95;;
30593;SDS011;33199;47.590;8.300;2022-09-27T03:37:01;0.50;;;0.50;;
30593;SDS011;33199;47.590;8.300;2022-09-27T03:39:26;0.40;;;0.40;;
30593;SDS011;33199;47.590;8.300;2022-09-27T03:41:52;0.43;;;0.43;;
30593;SDS011;33199;47.590;8.300;2022-09-27T03:44:18;0.60;;;0.60;;
30593;SDS011;33199;47.590;8.300;2022-09-27T03:46:43;1.00;;;0.47;;
30593;SDS011;33199;47.590;8.300;2022-09-27T03:49:09;0.60;;;0.57;;
30593;SDS011;33199;47.590;8.300;2022-09-27T03:51:34;0.77;;;0.77;;
30593;SDS011;33199;47.590;8.300;2022-09-27T03:54:00;0.40;;;0.40;;
30593;SDS011;33199;47.590;8.300;2022-09-27T03:56:25;0.22;;;0.22;;
30593;SDS011;33199;47.590;8.300;2022-09-27T03:58:51;0.45;;;0.30;;
30593;SDS011;33199;47.590;8.300;2022-09-27T04:01:16;0.30;;;0.30;;
30593;SDS011;33199;47.590;8.300;2022-09-27T04:03:42;0.57;;;0.55;;
30593;SDS011;33199;47.590;8.300;2022-09-27T04:06:08;0.85;;;0.57;;
30593;SDS011;33199;47.590;8.300;2022-09-27T04:08:33;0.60;;;0.40;;
30593;SDS011;33199;47.590;8.300;2022-09-27T04:11:00;2.58;;;0.40;;
30593;SDS011;33199;47.590;8.300;2022-09-27T04:13:27;1.38;;;0.60;;
30593;SDS011;33199;47.590;8.300;2022-09-27T04:15:53;3.15;;;0.63;;
30593;SDS011;33199;47.590;8.300;2022-09-27T04:18:19;1.90;;;0.85;;
30593;SDS011;33199;47.590;8.300;2022-09-27T04:20:44;3.58;;;0.40;;
30593;SDS011;33199;47.590;8.300;2022-09-27T04:23:10;2.30;;;0.70;;
30593;SDS011;33199;47.590;8.300;2022-09-27T04:25:35;1.55;;;0.30;;
30593;SDS011;33199;47.590;8.300;2022-09-27T04:28:01;2.47;;;0.60;;
30593;SDS011;33199;47.590;8.300;2022-09-27T04:30:29;6.22;;;0.40;;
30593;SDS011;33199;47.590;8.300;2022-09-27T04:32:55;0.63;;;0.45;;
30593;SDS011;33199;47.590;8.300;2022-09-27T04:35:20;2.35;;;0.90;;
30593;SDS011;33199;47.590;8.300;2022-09-27T04:38:05;2.90;;;0.77;;
30593;SDS011;33199;47.590;8.300;2022-09-27T04:40:32;2.67;;;0.50;;
30593;SDS011;33199;47.590;8.300;2022-09-27T04:42:59;1.95;;;0.68;;
30593;SDS011;33199;47.590;8.300;2022-09-27T04:45:25;1.02;;;0.40;;
30593;SDS011;33199;47.590;8.300;2022-09-27T04:47:50;2.17;;;0.50;;
30593;SDS011;33199;47.590;8.300;2022-09-27T04:50:16;2.08;;;0.47;;
30593;SDS011;33199;47.590;8.300;2022-09-27T04:52:43;3.67;;;0.77;;
30593;SDS011;33199;47.590;8.300;2022-09-27T04:55:13;2.55;;;0.47;;
30593;SDS011;33199;47.590;8.300;2022-09-27T04:57:39;1.63;;;0.70;;
30593;SDS011;33199;47.590;8.300;2022-09-27T05:00:04;0.60;;;0.50;;
30593;SDS011;33199;47.590;8.300;2022-09-27T05:02:30;2.05;;;0.50;;
30593;SDS011;33199;47.590;8.300;2022-09-27T05:04:56;1.42;;;0.50;;
30593;SDS011;33199;47.590;8.300;2022-09-27T05:07:24;0.35;;;0.35;;
30593;SDS011;33199;47.590;8.300;2022-09-27T05:09:51;1.75;;;0.52;;
30593;SDS011;33199;47.590;8.300;2022-09-27T05:12:16;1.55;;;0.50;;
30593;SDS011;33199;47.590;8.300;2022-09-27T05:14:42;3.00;;;0.60;;
30593;SDS011;33199;47.590;8.300;2022-09-27T05:17:08;1.05;;;0.55;;
30593;SDS011;33199;47.590;8.300;2022-09-27T05:19:34;2.10;;;0.60;;
30593;SDS011;33199;47.590;8.300;2022-09-27T05:22:00;1.83;;;0.60;;
30593;SDS011;33199;47.590;8.300;2022-09-27T05:24:25;0.60;;;0.40;;
30593;SDS011;33199;47.590;8.300;2022-09-27T05:26:56;1.25;;;0.65;;
30593;SDS011;33199;47.590;8.300;2022-09-27T05:29:22;1.45;;;0.55;;
30593;SDS011;33199;47.590;8.300;2022-09-27T05:31:47;1.05;;;0.52;;
30593;SDS011;33199;47.590;8.300;2022-09-27T05:34:14;0.50;;;0.32;;
30593;SDS011;33199;47.590;8.300;2022-09-27T05:36:39;0.75;;;0.40;;
30593;SDS011;33199;47.590;8.300;2022-09-27T05:39:05;2.10;;;0.50;;
30593;SDS011;33199;47.590;8.300;2022-09-27T05:41:31;1.08;;;0.50;;
30593;SDS011;33199;47.590;8.300;2022-09-27T05:43:57;0.73;;;0.43;;
30593;SDS011;33199;47.590;8.300;2022-09-27T05:46:23;1.15;;;0.47;;
30593;SDS011;33199;47.590;8.300;2022-09-27T05:48:48;1.05;;;0.50;;
30593;SDS011;33199;47.590;8.300;2022-09-27T05:51:14;0.98;;;0.40;;
30593;SDS011;33199;47.590;8.300;2022-09-27T05:53:40;1.20;;;0.40;;
30593;SDS011;33199;47.590;8.300;2022-09-27T05:56:05;1.20;;;0.68;;
30593;SDS011;33199;47.590;8.300;2022-09-27T05:58:31;3.15;;;0.63;;
30593;SDS011;33199;47.590;8.300;2022-09-27T06:00:58;2.50;;;0.50;;
30593;SDS011;33199;47.590;8.300;2022-09-27T06:03:23;0.98;;;0.40;;
30593;SDS011;33199;47.590;8.300;2022-09-27T06:05:49;1.08;;;0.40;;
30593;SDS011;33199;47.590;8.300;2022-09-27T06:08:15;0.73;;;0.50;;
30593;SDS011;33199;47.590;8.300;2022-09-27T06:10:40;1.20;;;0.50;;
30593;SDS011;33199;47.590;8.300;2022-09-27T06:13:06;1.45;;;0.30;;
30593;SDS011;33199;47.590;8.300;2022-09-27T06:15:38;1.55;;;0.40;;
30593;SDS011;33199;47.590;8.300;2022-09-27T06:18:05;2.22;;;0.70;;
30593;SDS011;33199;47.590;8.300;2022-09-27T06:20:34;1.00;;;0.40;;
30593;SDS011;33199;47.590;8.300;2022-09-27T06:23:12;0.68;;;0.50;;
30593;SDS011;33199;47.590;8.300;2022-09-27T06:25:39;0.93;;;0.40;;
30593;SDS011;33199;47.590;8.300;2022-09-27T06:28:05;0.77;;;0.38;;
30593;SDS011;33199;47.590;8.300;2022-09-27T06:30:32;1.00;;;0.40;;
30593;SDS011;33199;47.590;8.300;2022-09-27T06:33:01;3.97;;;0.65;;
30593;SDS011;33199;47.590;8.300;2022-09-27T06:35:27;1.15;;;0.40;;
30593;SDS011;33199;47.590;8.300;2022-09-27T06:37:53;1.17;;;0.40;;
30593;SDS011;33199;47.590;8.300;2022-09-27T06:40:19;1.65;;;0.40;;
30593;SDS011;33199;47.590;8.300;2022-09-27T06:42:46;2.70;;;0.68;;
30593;SDS011;33199;47.590;8.300;2022-09-27T06:45:12;2.05;;;0.47;;
30593;SDS011;33199;47.590;8.300;2022-09-27T06:47:38;0.32;;;0.30;;
30593;SDS011;33199;47.590;8.300;2022-09-27T06:50:04;0.80;;;0.38;;
30593;SDS011;33199;47.590;8.300;2022-09-27T06:52:31;1.27;;;0.40;;
30593;SDS011;33199;47.590;8.300;2022-09-27T06:54:57;0.55;;;0.40;;
30593;SDS011;33199;47.590;8.300;2022-09-27T06:57:23;0.95;;;0.32;;
30593;SDS011;33199;47.590;8.300;2022-09-27T07:00:08;2.10;;;0.43;;
30593;SDS011;33199;47.590;8.300;2022-09-27T07:02:54;1.55;;;0.65;;
30593;SDS011;33199;47.590;8.300;2022-09-27T07:05:22;0.57;;;0.38;;
30593;SDS011;33199;47.590;8.300;2022-09-27T07:07:49;1.88;;;0.40;;
30593;SDS011;33199;47.590;8.300;2022-09-27T07:10:17;0.50;;;0.43;;
30593;SDS011;33199;47.590;8.300;2022-09-27T07:12:43;0.90;;;0.40;;
30593;SDS011;33199;47.590;8.300;2022-09-27T07:15:12;0.30;;;0.30;;
30593;SDS011;33199;47.590;8.300;2022-09-27T07:17:39;0.93;;;0.60;;
30593;SDS011;33199;47.590;8.300;2022-09-27T07:20:05;1.27;;;0.60;;
30593;SDS011;33199;47.590;8.300;2022-09-27T07:22:31;0.93;;;0.50;;
30593;SDS011;33199;47.590;8.300;2022-09-27T07:24:56;1.20;;;0.40;;
30593;SDS011;33199;47.590;8.300;2022-09-27T07:27:22;0.43;;;0.28;;
30593;SDS011;33199;47.590;8.300;2022-09-27T07:29:49;0.95;;;0.50;;
30593;SDS011;33199;47.590;8.300;2022-09-27T07:32:15;0.70;;;0.57;;
30593;SDS011;33199;47.590;8.300;2022-09-27T07:34:40;1.15;;;0.47;;
30593;SDS011;33199;47.590;8.300;2022-09-27T07:37:06;0.57;;;0.20;;
30593;SDS011;33199;47.590;8.300;2022-09-27T07:39:32;0.40;;;0.30;;
30593;SDS011;33199;47.590;8.300;2022-09-27T07:41:58;1.02;;;0.35;;
30593;SDS011;33199;47.590;8.300;2022-09-27T07:44:24;2.08;;;0.20;;
30593;SDS011;33199;47.590;8.300;2022-09-27T07:46:49;0.32;;;0.20;;
30593;SDS011;33199;47.590;8.300;2022-09-27T07:49:15;0.75;;;0.40;;
30593;SDS011;33199;47.590;8.300;2022-09-27T07:51:41;1.60;;;0.57;;
30593;SDS011;33199;47.590;8.300;2022-09-27T07:54:06;1.08;;;0.40;;
30593;SDS011;33199;47.590;8.300;2022-09-27T07:56:32;0.82;;;0.50;;
30593;SDS011;33199;47.590;8.300;2022-09-27T07:58:57;1.60;;;0.40;;
30593;SDS011;33199;47.590;8.300;2022-09-27T08:01:23;2.28;;;0.60;;
30593;SDS011;33199;47.590;8.300;2022-09-27T08:03:48;1.80;;;0.88;;
30593;SDS011;33199;47.590;8.300;2022-09-27T08:06:14;3.47;;;0.63;;
30593;SDS011;33199;47.590;8.300;2022-09-27T08:08:41;1.42;;;0.50;;
30593;SDS011;33199;47.590;8.300;2022-09-27T08:11:11;4.88;;;1.00;;
30593;SDS011;33199;47.590;8.300;2022-09-27T08:13:39;1.35;;;0.60;;
30593;SDS011;33199;47.590;8.300;2022-09-27T08:16:05;2.53;;;0.80;;
30593;SDS011;33199;47.590;8.300;2022-09-27T08:18:31;3.15;;;0.60;;
30593;SDS011;33199;47.590;8.300;2022-09-27T08:20:57;5.15;;;0.70;;
30593;SDS011;33199;47.590;8.300;2022-09-27T08:23:23;0.65;;;0.40;;
30593;SDS011;33199;47.590;8.300;2022-09-27T08:25:52;2.38;;;0.60;;
30593;SDS011;33199;47.590;8.300;2022-09-27T08:28:18;1.23;;;0.70;;
30593;SDS011;33199;47.590;8.300;2022-09-27T08:30:47;1.60;;;0.57;;
30593;SDS011;33199;47.590;8.300;2022-09-27T08:33:13;0.95;;;0.70;;
30593;SDS011;33199;47.590;8.300;2022-09-27T08:35:38;1.38;;;0.50;;
30593;SDS011;33199;47.590;8.300;2022-09-27T08:38:04;2.95;;;0.55;;
30593;SDS011;33199;47.590;8.300;2022-09-27T08:40:45;0.57;;;0.57;;
30593;SDS011;33199;47.590;8.300;2022-09-27T08:43:23;2.15;;;0.63;;
30593;SDS011;33199;47.590;8.300;2022-09-27T08:46:10;4.18;;;0.65;;
30593;SDS011;33199;47.590;8.300;2022-09-27T08:48:58;1.42;;;0.60;;
30593;SDS011;33199;47.590;8.300;2022-09-27T08:51:30;1.92;;;0.40;;
30593;SDS011;33199;47.590;8.300;2022-09-27T08:54:00;1.20;;;0.50;;
30593;SDS011;33199;47.590;8.300;2022-09-27T08:56:32;1.35;;;0.70;;
30593;SDS011;33199;47.590;8.300;2022-09-27T08:59:19;4.30;;;0.65;;
30593;SDS011;33199;47.590;8.300;2022-09-27T09:01:50;2.10;;;0.85;;
30593;SDS011;33199;47.590;8.300;2022-09-27T09:04:21;2.88;;;0.90;;
30593;SDS011;33199;47.590;8.300;2022-09-27T09:12:24;2.58;;;0.75;;
30593;SDS011;33199;47.590;8.300;2022-09-27T09:20:42;2.63;;;0.60;;
30593;SDS011;33199;47.590;8.300;2022-09-27T09:23:40;2.25;;;1.02;;
30593;SDS011;33199;47.590;8.300;2022-09-27T09:29:56;0.82;;;0.60;;
30593;SDS011;33199;47.590;8.300;2022-09-27T09:35:35;1.95;;;0.63;;
30593;SDS011;33199;47.590;8.300;2022-09-27T09:38:23;0.60;;;0.60;;
30593;SDS011;33199;47.590;8.300;2022-09-27T09:41:17;1.30;;;0.60;;
30593;SDS011;33199;47.590;8.300;2022-09-27T09:43:50;1.63;;;0.60;;
30593;SDS011;33199;47.590;8.300;2022-09-27T09:51:43;1.58;;;0.60;;
30593;SDS011;33199;47.590;8.300;2022-09-27T09:54:23;0.93;;;0.50;;
30593;SDS011;33199;47.590;8.300;2022-09-27T09:57:12;3.58;;;0.65;;
30593;SDS011;33199;47.590;8.300;2022-09-27T10:02:36;0.47;;;0.47;;
30593;SDS011;33199;47.590;8.300;2022-09-27T10:05:03;4.22;;;1.52;;
30593;SDS011;33199;47.590;8.300;2022-09-27T10:07:30;1.55;;;0.60;;
30593;SDS011;33199;47.590;8.300;2022-09-27T10:10:02;0.68;;;0.60;;
30593;SDS011;33199;47.590;8.300;2022-09-27T10:12:30;1.63;;;0.60;;
30593;SDS011;33199;47.590;8.300;2022-09-27T10:15:00;1.63;;;0.50;;
30593;SDS011;33199;47.590;8.300;2022-09-27T10:17:32;0.63;;;0.40;;
30593;SDS011;33199;47.590;8.300;2022-09-27T10:20:02;0.43;;;0.40;;
30593;SDS011;33199;47.590;8.300;2022-09-27T10:22:35;1.35;;;0.43;;
30593;SDS011;33199;47.590;8.300;2022-09-27T10:25:04;2.15;;;0.70;;
30593;SDS011;33199;47.590;8.300;2022-09-27T10:27:39;0.93;;;0.60;;
30593;SDS011;33199;47.590;8.300;2022-09-27T10:30:28;0.98;;;0.40;;
30593;SDS011;33199;47.590;8.300;2022-09-27T10:33:06;1.75;;;0.47;;
30593;SDS011;33199;47.590;8.300;2022-09-27T10:35:41;0.55;;;0.50;;
30593;SDS011;33199;47.590;8.300;2022-09-27T10:40:47;1.00;;;0.52;;
30593;SDS011;33199;47.590;8.300;2022-09-27T10:43:33;0.70;;;0.40;;
30593;SDS011;33199;47.590;8.300;2022-09-27T10:48:37;2.58;;;0.30;;
30593;SDS011;33199;47.590;8.300;2022-09-27T10:51:06;0.57;;;0.38;;
30593;SDS011;33199;47.590;8.300;2022-09-27T10:53:50;0.40;;;0.40;;
30593;SDS011;33199;47.590;8.300;2022-09-27T10:56:26;4.97;;;0.25;;
30593;SDS011;33199;47.590;8.300;2022-09-27T10:58:54;0.45;;;0.45;;
30593;SDS011;33199;47.590;8.300;2022-09-27T11:01:22;0.43;;;0.30;;
30593;SDS011;33199;47.590;8.300;2022-09-27T11:03:53;2.88;;;0.30;;
30593;SDS011;33199;47.590;8.300;2022-09-27T11:11:20;0.45;;;0.30;;
30593;SDS011;33199;47.590;8.300;2022-09-27T11:14:01;3.22;;;0.40;;
30593;SDS011;33199;47.590;8.300;2022-09-27T11:16:36;0.77;;;0.30;;
30593;SDS011;33199;47.590;8.300;2022-09-27T11:19:21;0.40;;;0.30;;
30593;SDS011;33199;47.590;8.300;2022-09-27T11:32:41;1.08;;;0.35;;
30593;SDS011;33199;47.590;8.300;2022-09-27T11:43:53;0.70;;;0.30;;
30593;SDS011;33199;47.590;8.300;2022-09-27T11:46:41;1.25;;;0.30;;
30593;SDS011;33199;47.590;8.300;2022-09-27T11:52:15;0.60;;;0.30;;
30593;SDS011;33199;47.590;8.300;2022-09-27T11:57:42;0.30;;;0.20;;
30593;SDS011;33199;47.590;8.300;2022-09-27T12:00:17;0.35;;;0.20;;
30593;SDS011;33199;47.590;8.300;2022-09-27T12:02:55;0.32;;;0.25;;
30593;SDS011;33199;47.590;8.300;2022-09-27T12:06:19;0.93;;;0.30;;
30593;SDS011;33199;47.590;8.300;2022-09-27T12:13:54;0.20;;;0.10;;
30593;SDS011;33199;47.590;8.300;2022-09-27T12:16:23;1.08;;;0.40;;
30593;SDS011;33199;47.590;8.300;2022-09-27T12:18:51;1.00;;;0.20;;
30593;SDS011;33199;47.590;8.300;2022-09-27T12:21:18;0.30;;;0.25;;
30593;SDS011;33199;47.590;8.300;2022-09-27T12:23:46;0.47;;;0.20;;
30593;SDS011;33199;47.590;8.300;2022-09-27T12:26:18;2.20;;;0.35;;
30593;SDS011;33199;47.590;8.300;2022-09-27T12:28:52;0.60;;;0.30;;
30593;SDS011;33199;47.590;8.300;2022-09-27T12:31:32;0.22;;;0.20;;
30593;SDS011;33199;47.590;8.300;2022-09-27T12:34:21;1.17;;;0.30;;
30593;SDS011;33199;47.590;8.300;2022-09-27T13:02:31;3.67;;;1.35;;
30593;SDS011;33199;47.590;8.300;2022-09-27T13:05:07;1.63;;;1.20;;
30593;SDS011;33199;47.590;8.300;2022-09-27T13:13:34;2.75;;;1.23;;
30593;SDS011;33199;47.590;8.300;2022-09-27T13:16:03;1.00;;;1.00;;
30593;SDS011;33199;47.590;8.300;2022-09-27T13:27:33;1.65;;;1.10;;
30593;SDS011;33199;47.590;8.300;2022-09-27T13:35:33;2.13;;;0.90;;
30593;SDS011;33199;47.590;8.300;2022-09-27T13:37:59;2.55;;;1.00;;
30593;SDS011;33199;47.590;8.300;2022-09-27T13:40:31;1.60;;;1.00;;
30593;SDS011;33199;47.590;8.300;2022-09-27T13:51:41;0.85;;;0.70;;
30593;SDS011;33199;47.590;8.300;2022-09-27T13:57:02;1.38;;;0.95;;
30593;SDS011;33199;47.590;8.300;2022-09-27T14:02:22;0.98;;;0.88;;
30593;SDS011;33199;47.590;8.300;2022-09-27T14:04:52;1.73;;;0.80;;
30593;SDS011;33199;47.590;8.300;2022-09-27T14:07:21;1.38;;;1.00;;
30593;SDS011;33199;47.590;8.300;2022-09-27T14:09:51;2.42;;;1.00;;
30593;SDS011;33199;47.590;8.300;2022-09-27T14:12:19;0.70;;;0.70;;
30593;SDS011;33199;47.590;8.300;2022-09-27T14:14:49;1.33;;;0.85;;
30593;SDS011;33199;47.590;8.300;2022-09-27T14:17:15;0.80;;;0.80;;
30593;SDS011;33199;47.590;8.300;2022-09-27T14:19:42;1.02;;;0.80;;
30593;SDS011;33199;47.590;8.300;2022-09-27T14:22:13;0.68;;;0.68;;
30593;SDS011;33199;47.590;8.300;2022-09-27T14:27:09;0.70;;;0.70;;
30593;SDS011;33199;47.590;8.300;2022-09-27T14:29:41;0.80;;;0.80;;
30593;SDS011;33199;47.590;8.300;2022-09-27T14:32:12;2.35;;;0.90;;
30593;SDS011;33199;47.590;8.300;2022-09-27T14:34:42;0.70;;;0.70;;
30593;SDS011;33199;47.590;8.300;2022-09-27T14:40:04;1.75;;;0.80;;
30593;SDS011;33199;47.590;8.300;2022-09-27T14:42:35;0.90;;;0.90;;
30593;SDS011;33199;47.590;8.300;2022-09-27T14:45:03;0.63;;;0.50;;
30593;SDS011;33199;47.590;8.300;2022-09-27T14:47:43;15.20;;;0.68;;
30593;SDS011;33199;47.590;8.300;2022-09-27T14:50:18;1.75;;;0.30;;
30593;SDS011;33199;47.590;8.300;2022-09-27T14:52:48;1.98;;;0.43;;
30593;SDS011;33199;47.590;8.300;2022-09-27T14:55:19;0.63;;;0.38;;
30593;SDS011;33199;47.590;8.300;2022-09-27T14:57:50;3.30;;;0.60;;
30593;SDS011;33199;47.590;8.300;2022-09-27T15:00:21;1.67;;;0.50;;
30593;SDS011;33199;47.590;8.300;2022-09-27T15:02:56;2.28;;;0.50;;
30593;SDS011;33199;47.590;8.300;2022-09-27T15:05:25;0.40;;;0.40;;
30593;SDS011;33199;47.590;8.300;2022-09-27T15:10:21;0.40;;;0.30;;
30593;SDS011;33199;47.590;8.300;2022-09-27T15:12:51;1.17;;;0.50;;
30593;SDS011;33199;47.590;8.300;2022-09-27T15:15:22;0.40;;;0.40;;
30593;SDS011;33199;47.590;8.300;2022-09-27T15:17:50;0.50;;;0.50;;
30593;SDS011;33199;47.590;8.300;2022-09-27T15:20:21;0.68;;;0.45;;
30593;SDS011;33199;47.590;8.300;2022-09-27T15:22:55;0.98;;;0.30;;
30593;SDS011;33199;47.590;8.300;2022-09-27T15:33:03;1.73;;;0.40;;
30593;SDS011;33199;47.590;8.300;2022-09-27T15:40:57;0.47;;;0.47;;
30593;SDS011;33199;47.590;8.300;2022-09-27T15:43:28;0.30;;;0.30;;
30593;SDS011;33199;47.590;8.300;2022-09-27T15:46:03;0.63;;;0.60;;
30593;SDS011;33199;47.590;8.300;2022-09-27T15:51:42;0.45;;;0.45;;
30593;SDS011;33199;47.590;8.300;2022-09-27T15:54:08;1.23;;;0.50;;
30593;SDS011;33199;47.590;8.300;2022-09-27T15:56:34;3.92;;;0.45;;
30593;SDS011;33199;47.590;8.300;2022-09-27T15:59:01;0.85;;;0.40;;
30593;SDS011;33199;47.590;8.300;2022-09-27T16:01:27;1.77;;;0.50;;
30593;SDS011;33199;47.590;8.300;2022-09-27T16:03:53;0.50;;;0.40;;
30593;SDS011;33199;47.590;8.300;2022-09-27T16:06:18;1.42;;;0.40;;
30593;SDS011;33199;47.590;8.300;2022-09-27T16:08:48;0.68;;;0.40;;
30593;SDS011;33199;47.590;8.300;2022-09-27T16:11:14;0.35;;;0.35;;
30593;SDS011;33199;47.590;8.300;2022-09-27T16:13:42;0.47;;;0.30;;
30593;SDS011;33199;47.590;8.300;2022-09-27T16:16:11;0.30;;;0.30;;
30593;SDS011;33199;47.590;8.300;2022-09-27T16:18:40;0.85;;;0.30;;
30593;SDS011;33199;47.590;8.300;2022-09-27T16:21:05;0.20;;;0.20;;
30593;SDS011;33199;47.590;8.300;2022-09-27T16:23:31;0.40;;;0.30;;
30593;SDS011;33199;47.590;8.300;2022-09-27T16:25:56;0.50;;;0.30;;
30593;SDS011;33199;47.590;8.300;2022-09-27T16:28:22;0.30;;;0.30;;
30593;SDS011;33199;47.590;8.300;2022-09-27T16:30:48;0.30;;;0.30;;
30593;SDS011;33199;47.590;8.300;2022-09-27T16:33:13;0.30;;;0.30;;
30593;SDS011;33199;47.590;8.300;2022-09-27T16:35:39;0.60;;;0.30;;
30593;SDS011;33199;47.590;8.300;2022-09-27T16:40:34;1.23;;;0.35;;
30593;SDS011;33199;47.590;8.300;2022-09-27T16:43:00;0.30;;;0.30;;
30593;SDS011;33199;47.590;8.300;2022-09-27T16:45:28;0.30;;;0.25;;
30593;SDS011;33199;47.590;8.300;2022-09-27T16:50:23;0.43;;;0.30;;
30593;SDS011;33199;47.590;8.300;2022-09-27T16:53:07;2.88;;;0.30;;
30593;SDS011;33199;47.590;8.300;2022-09-27T16:55:34;0.90;;;0.28;;
30593;SDS011;33199;47.590;8.300;2022-09-27T16:58:00;0.20;;;0.20;;
30593;SDS011;33199;47.590;8.300;2022-09-27T17:00:27;0.57;;;0.20;;
30593;SDS011;33199;47.590;8.300;2022-09-27T17:02:55;0.83;;;0.23;;
30593;SDS011;33199;47.590;8.300;2022-09-27T17:05:21;0.20;;;0.20;;
30593;SDS011;33199;47.590;8.300;2022-09-27T17:07:50;0.22;;;0.22;;
30593;SDS011;33199;47.590;8.300;2022-09-27T17:10:20;0.50;;;0.32;;
30593;SDS011;33199;47.590;8.300;2022-09-27T17:12:47;0.57;;;0.45;;
30593;SDS011;33199;47.590;8.300;2022-09-27T17:15:13;0.30;;;0.30;;
30593;SDS011;33199;47.590;8.300;2022-09-27T17:17:39;0.30;;;0.30;;
30593;SDS011;33199;47.590;8.300;2022-09-27T17:20:05;0.75;;;0.20;;
30593;SDS011;33199;47.590;8.300;2022-09-27T17:22:31;2.67;;;0.50;;
30593;SDS011;33199;47.590;8.300;2022-09-27T17:24:56;1.23;;;0.30;;
30593;SDS011;33199;47.590;8.300;2022-09-27T17:27:22;0.30;;;0.30;;
30593;SDS011;33199;47.590;8.300;2022-09-27T17:29:53;0.30;;;0.30;;
30593;SDS011;33199;47.590;8.300;2022-09-27T17:32:19;0.70;;;0.30;;
30593;SDS011;33199;47.590;8.300;2022-09-27T17:34:48;0.40;;;0.40;;
30593;SDS011;33199;47.590;8.300;2022-09-27T17:37:14;0.50;;;0.20;;
30593;SDS011;33199;47.590;8.300;2022-09-27T17:39:40;0.88;;;0.32;;
30593;SDS011;33199;47.590;8.300;2022-09-27T17:42:06;1.85;;;0.30;;
30593;SDS011;33199;47.590;8.300;2022-09-27T17:44:32;0.20;;;0.20;;
30593;SDS011;33199;47.590;8.300;2022-09-27T17:46:58;0.60;;;0.40;;
30593;SDS011;33199;47.590;8.300;2022-09-27T17:49:42;0.20;;;0.20;;
30593;SDS011;33199;47.590;8.300;2022-09-27T17:52:26;0.30;;;0.30;;
30593;SDS011;33199;47.590;8.300;2022-09-27T17:54:52;0.50;;;0.40;;
30593;SDS011;33199;47.590;8.300;2022-09-27T17:57:21;0.57;;;0.30;;
30593;SDS011;33199;47.590;8.300;2022-09-27T17:59:47;0.30;;;0.30;;
30593;SDS011;33199;47.590;8.300;2022-09-27T18:02:12;0.25;;;0.25;;
30593;SDS011;33199;47.590;8.300;2022-09-27T18:04:38;0.28;;;0.28;;
30593;SDS011;33199;47.590;8.300;2022-09-27T18:07:03;2.05;;;0.32;;
30593;SDS011;33199;47.590;8.300;2022-09-27T18:09:29;1.75;;;0.30;;
30593;SDS011;33199;47.590;8.300;2022-09-27T18:11:55;0.30;;;0.30;;
30593;SDS011;33199;47.590;8.300;2022-09-27T18:14:22;0.10;;;0.10;;
30593;SDS011;33199;47.590;8.300;2022-09-27T18:16:50;0.73;;;0.38;;
30593;SDS011;33199;47.590;8.300;2022-09-27T18:19:18;0.28;;;0.25;;
30593;SDS011;33199;47.590;8.300;2022-09-27T18:21:44;0.52;;;0.52;;
30593;SDS011;33199;47.590;8.300;2022-09-27T18:24:09;0.50;;;0.40;;
30593;SDS011;33199;47.590;8.300;2022-09-27T18:26:35;0.20;;;0.20;;
30593;SDS011;33199;47.590;8.300;2022-09-27T18:29:10;0.22;;;0.20;;
30593;SDS011;33199;47.590;8.300;2022-09-27T18:31:38;0.80;;;0.40;;